createdAt,value
2022-10-29T00:02:10.009Z,16.47
2022-10-29T00:04:44.391Z,14.70
2022-10-29T00:07:13.118Z,15.23
2022-10-29T00:09:42.525Z,15.93
2022-10-29T00:12:11.651Z,14.83
2022-10-29T00:14:43.513Z,13.63
2022-10-29T00:17:13.010Z,15.37
2022-10-29T00:19:45.815Z,15.40
2022-10-29T00:22:14.941Z,14.73
2022-10-29T00:24:43.052Z,13.27
2022-10-29T00:27:12.460Z,13.47
2022-10-29T00:29:44.572Z,13.33
2022-10-29T00:32:13.788Z,14.27
2022-10-29T00:34:43.420Z,13.20
2022-10-29T00:37:12.632Z,12.80
2022-10-29T00:39:44.485Z,12.40
2022-10-29T00:42:16.188Z,12.17
2022-10-29T00:44:44.485Z,13.27
2022-10-29T00:47:19.624Z,14.83
2022-10-29T00:49:51.430Z,13.50
2022-10-29T00:52:23.445Z,13.13
2022-10-29T00:54:53.399Z,13.27
2022-10-29T00:57:26.337Z,13.20
2022-10-29T00:59:54.407Z,14.87
2022-10-29T01:02:24.219Z,14.43
2022-10-29T01:04:55.098Z,14.00
2022-10-29T01:07:23.681Z,12.63
2022-10-29T01:09:53.040Z,14.70
2022-10-29T01:12:34.617Z,13.60
2022-10-29T01:15:09.863Z,13.00
2022-10-29T01:17:46.705Z,13.87
2022-10-29T01:20:44.622Z,13.37
2022-10-29T01:23:27.262Z,13.80
2022-10-29T01:26:16.023Z,12.30
2022-10-29T01:29:01.812Z,13.00
2022-10-29T01:31:35.464Z,13.43
2022-10-29T01:34:07.032Z,13.37
2022-10-29T01:36:46.840Z,12.00
2022-10-29T01:39:21.446Z,12.87
2022-10-29T01:41:54.291Z,13.37
2022-10-29T01:44:35.310Z,14.27
2022-10-29T01:47:07.786Z,13.83
2022-10-29T01:49:41.565Z,13.53
2022-10-29T01:52:14.046Z,12.93
2022-10-29T01:54:46.408Z,14.63
2022-10-29T01:57:29.757Z,14.40
2022-10-29T01:59:59.807Z,15.50
2022-10-29T02:02:35.351Z,13.90
2022-10-29T02:05:13.265Z,13.80
2022-10-29T02:07:47.086Z,14.50
2022-10-29T02:10:21.379Z,15.33
2022-10-29T02:12:52.524Z,13.60
2022-10-29T02:15:25.311Z,14.40
2022-10-29T02:18:00.219Z,14.70
2022-10-29T02:20:29.254Z,14.70
2022-10-29T02:22:57.395Z,16.80
2022-10-29T02:25:26.333Z,15.83
2022-10-29T02:27:55.887Z,14.50
2022-10-29T02:30:24.197Z,16.23
2022-10-29T02:32:53.666Z,17.50
2022-10-29T02:35:23.600Z,16.93
2022-10-29T02:37:53.002Z,16.80
2022-10-29T02:40:23.945Z,16.57
2022-10-29T02:42:53.154Z,16.63
2022-10-29T02:45:22.233Z,15.90
2022-10-29T02:47:51.619Z,16.33
2022-10-29T02:50:20.346Z,16.43
2022-10-29T02:52:51.081Z,15.90
2022-10-29T02:55:19.336Z,15.10
2022-10-29T02:57:48.808Z,14.50
2022-10-29T03:00:17.739Z,15.80
2022-10-29T03:02:45.836Z,15.30
2022-10-29T03:05:14.363Z,15.07
2022-10-29T03:07:45.036Z,14.60
2022-10-29T03:10:14.750Z,14.10
2022-10-29T03:12:44.889Z,15.20
2022-10-29T03:15:13.381Z,15.13
2022-10-29T03:17:44.930Z,14.73
2022-10-29T03:20:13.347Z,12.93
2022-10-29T03:22:44.962Z,14.23
2022-10-29T03:25:14.910Z,13.33
2022-10-29T03:27:43.206Z,13.90
2022-10-29T03:30:12.958Z,13.97
2022-10-29T03:32:44.814Z,13.70
2022-10-29T03:35:15.439Z,14.37
2022-10-29T03:37:45.879Z,13.03
2022-10-29T03:40:15.706Z,13.73
2022-10-29T03:42:43.882Z,13.70
2022-10-29T03:45:13.102Z,13.70
2022-10-29T03:47:43.223Z,12.77
2022-10-29T03:50:11.416Z,13.33
2022-10-29T03:52:43.038Z,14.07
2022-10-29T03:55:12.478Z,12.97
2022-10-29T03:57:45.195Z,14.83
2022-10-29T04:00:15.382Z,13.50
2022-10-29T04:02:46.286Z,16.23
2022-10-29T04:05:15.705Z,16.57
2022-10-29T04:07:45.912Z,14.07
2022-10-29T04:10:15.614Z,15.20
2022-10-29T04:12:48.066Z,15.53
2022-10-29T04:15:17.672Z,15.33
2022-10-29T04:17:46.318Z,14.00
2022-10-29T04:20:40.618Z,16.07
2022-10-29T04:24:12.167Z,15.53
2022-10-29T04:28:51.070Z,16.37
2022-10-29T04:31:19.842Z,16.27
2022-10-29T04:33:49.383Z,15.90
2022-10-29T04:36:18.393Z,16.63
2022-10-29T04:38:48.018Z,17.00
2022-10-29T04:41:17.110Z,16.30
2022-10-29T04:43:45.383Z,15.33
2022-10-29T04:46:16.027Z,16.40
2022-10-29T04:48:46.238Z,16.17
2022-10-29T04:51:20.721Z,15.77
2022-10-29T04:53:49.411Z,14.80
2022-10-29T04:56:18.729Z,15.30
2022-10-29T04:58:47.545Z,15.83
2022-10-29T05:01:18.483Z,13.67
2022-10-29T05:03:47.433Z,14.60
2022-10-29T05:06:16.424Z,15.50
2022-10-29T05:08:44.843Z,15.30
2022-10-29T05:11:14.449Z,15.77
2022-10-29T05:13:45.629Z,15.73
2022-10-29T05:16:14.492Z,14.80
2022-10-29T05:18:48.361Z,14.60
2022-10-29T05:21:16.507Z,15.00
2022-10-29T05:23:44.614Z,15.17
2022-10-29T05:26:13.503Z,13.33
2022-10-29T05:28:45.437Z,14.20
2022-10-29T05:31:14.501Z,13.70
2022-10-29T05:33:50.051Z,14.67
2022-10-29T05:36:21.684Z,14.83
2022-10-29T05:38:51.836Z,14.10
2022-10-29T05:41:20.992Z,14.83
2022-10-29T05:43:50.298Z,14.73
2022-10-29T05:46:20.032Z,13.57
2022-10-29T05:48:49.878Z,13.53
2022-10-29T05:51:18.988Z,13.70
2022-10-29T05:53:48.381Z,13.13
2022-10-29T05:56:16.954Z,14.73
2022-10-29T05:58:45.499Z,12.63
2022-10-29T06:01:14.718Z,14.30
2022-10-29T06:03:45.643Z,13.80
2022-10-29T06:06:15.957Z,14.50
2022-10-29T06:08:46.700Z,14.90
2022-10-29T06:11:16.210Z,14.40
2022-10-29T06:13:44.344Z,15.17
2022-10-29T06:16:13.415Z,15.13
2022-10-29T06:18:42.269Z,15.13
2022-10-29T06:21:10.319Z,15.20
2022-10-29T06:23:41.071Z,13.57
2022-10-29T06:26:10.339Z,14.43
2022-10-29T06:28:41.339Z,14.23
2022-10-29T06:31:10.421Z,14.70
2022-10-29T06:33:41.532Z,15.27
2022-10-29T06:36:10.759Z,14.57
2022-10-29T06:38:45.080Z,15.50
2022-10-29T06:41:16.417Z,16.03
2022-10-29T06:43:46.910Z,12.73
2022-10-29T06:46:16.246Z,15.50
2022-10-29T06:48:46.455Z,13.63
2022-10-29T06:51:16.120Z,13.40
2022-10-29T06:53:49.087Z,15.77
2022-10-29T06:56:18.195Z,13.70
2022-10-29T06:58:46.557Z,14.87
2022-10-29T07:01:16.083Z,15.20
2022-10-29T07:03:46.279Z,15.10
2022-10-29T07:06:14.694Z,13.13
2022-10-29T07:08:48.584Z,15.33
2022-10-29T07:11:17.767Z,14.47
2022-10-29T07:13:47.321Z,14.87
2022-10-29T07:16:15.600Z,13.77
2022-10-29T07:18:45.758Z,13.73
2022-10-29T07:21:14.991Z,14.37
2022-10-29T07:23:45.399Z,12.60
2022-10-29T07:26:15.051Z,13.23
2022-10-29T07:28:45.450Z,12.67
2022-10-29T07:31:13.628Z,12.30
2022-10-29T07:33:43.089Z,13.60
2022-10-29T07:36:11.587Z,15.30
2022-10-29T07:38:41.882Z,12.20
2022-10-29T07:41:10.687Z,11.77
2022-10-29T07:43:44.127Z,12.97
2022-10-29T07:46:13.413Z,12.53
2022-10-29T07:48:44.825Z,11.67
2022-10-29T07:51:14.119Z,13.77
2022-10-29T07:53:45.470Z,13.20
2022-10-29T07:56:13.654Z,12.60
2022-10-29T07:58:45.512Z,12.00
2022-10-29T08:01:13.805Z,11.57
2022-10-29T08:03:43.187Z,12.90
2022-10-29T08:06:11.828Z,11.47
2022-10-29T08:08:44.788Z,11.17
2022-10-29T08:11:13.660Z,11.10
2022-10-29T08:13:44.532Z,11.90
2022-10-29T08:16:12.676Z,12.63
2022-10-29T08:18:43.667Z,11.27
2022-10-29T08:21:12.633Z,10.40
2022-10-29T08:23:42.254Z,11.10
2022-10-29T08:26:10.701Z,9.60
2022-10-29T08:28:42.871Z,10.00
2022-10-29T08:31:13.101Z,10.23
2022-10-29T08:33:43.009Z,8.27
2022-10-29T08:36:11.831Z,8.20
2022-10-29T08:38:45.331Z,8.30
2022-10-29T08:41:35.265Z,9.20
2022-10-29T08:44:25.574Z,8.67
2022-10-29T08:47:03.729Z,8.17
2022-10-29T08:49:46.083Z,7.90
2022-10-29T08:52:20.268Z,8.40
2022-10-29T08:54:54.140Z,8.87
2022-10-29T08:57:24.446Z,8.50
2022-10-29T09:00:05.474Z,8.47
2022-10-29T09:02:35.140Z,8.40
2022-10-29T09:05:04.159Z,8.23
2022-10-29T09:07:45.824Z,9.03
2022-10-29T09:10:22.571Z,8.40
2022-10-29T09:13:16.785Z,9.00
2022-10-29T09:15:57.783Z,9.30
2022-10-29T09:18:40.996Z,8.90
2022-10-29T09:21:22.351Z,9.60
2022-10-29T09:24:03.069Z,8.90
2022-10-29T09:26:35.011Z,8.30
2022-10-29T09:29:17.586Z,8.93
2022-10-29T09:31:49.858Z,9.13
2022-10-29T09:34:25.843Z,9.47
2022-10-29T09:36:55.457Z,9.27
2022-10-29T09:39:33.967Z,9.53
2022-10-29T09:42:06.845Z,9.37
2022-10-29T09:44:41.626Z,9.07
2022-10-29T09:47:18.282Z,9.90
2022-10-29T09:50:05.193Z,9.73
2022-10-29T09:52:37.984Z,10.10
2022-10-29T09:55:18.930Z,10.07
2022-10-29T09:57:49.768Z,11.20
2022-10-29T10:00:22.341Z,10.20
2022-10-29T10:02:56.738Z,10.37
2022-10-29T10:05:30.041Z,10.50
2022-10-29T10:08:10.556Z,11.30
2022-10-29T10:10:52.070Z,11.57
2022-10-29T10:13:26.120Z,11.30
2022-10-29T10:15:58.431Z,11.13
2022-10-29T10:18:28.959Z,10.47
2022-10-29T10:21:05.365Z,9.33
2022-10-29T10:23:46.820Z,10.17
2022-10-29T10:26:30.886Z,10.67
2022-10-29T10:29:12.084Z,10.87
2022-10-29T10:31:43.272Z,10.23
2022-10-29T10:34:20.097Z,10.50
2022-10-29T10:36:53.774Z,10.63
2022-10-29T10:39:28.761Z,10.77
2022-10-29T10:41:59.269Z,10.03
2022-10-29T10:44:28.345Z,9.83
2022-10-29T10:47:00.972Z,11.40
2022-10-29T10:49:32.939Z,11.83
2022-10-29T10:52:06.018Z,10.90
2022-10-29T10:54:40.506Z,11.80
2022-10-29T10:57:21.970Z,11.30
2022-10-29T11:00:01.646Z,11.17
2022-10-29T11:02:35.798Z,11.67
2022-10-29T11:05:11.308Z,11.27
2022-10-29T11:07:47.566Z,11.33
2022-10-29T11:10:16.862Z,10.93
2022-10-29T11:12:48.761Z,11.27
2022-10-29T11:15:21.140Z,11.63
2022-10-29T11:17:54.936Z,10.90
2022-10-29T11:20:26.306Z,11.27
2022-10-29T11:23:03.918Z,14.50
2022-10-29T11:25:42.326Z,13.20
2022-10-29T11:28:22.612Z,13.80
2022-10-29T11:30:53.481Z,14.37
2022-10-29T11:33:26.497Z,17.40
2022-10-29T11:36:00.537Z,21.33
2022-10-29T11:38:35.425Z,24.93
2022-10-29T11:41:07.545Z,24.93
2022-10-29T11:43:36.722Z,27.70
2022-10-29T11:46:11.112Z,25.07
2022-10-29T11:48:50.469Z,28.30
2022-10-29T11:51:27.390Z,27.90
2022-10-29T11:54:02.557Z,28.70
2022-10-29T11:56:57.362Z,28.47
2022-10-29T11:59:36.306Z,28.33
2022-10-29T12:02:12.315Z,29.00
2022-10-29T12:04:45.160Z,28.50
2022-10-29T12:07:22.477Z,28.63
2022-10-29T12:10:04.614Z,30.50
2022-10-29T12:12:41.909Z,31.30
2022-10-29T12:15:17.567Z,30.10
2022-10-29T12:17:49.570Z,30.10
2022-10-29T12:20:26.667Z,29.77
2022-10-29T12:23:03.680Z,31.20
2022-10-29T12:25:45.490Z,31.43
2022-10-29T12:28:20.152Z,30.03
2022-10-29T12:31:01.832Z,27.60
2022-10-29T12:33:37.803Z,26.60
2022-10-29T12:36:10.840Z,21.87
2022-10-29T12:38:42.327Z,22.87
2022-10-29T12:41:18.155Z,21.83
2022-10-29T12:43:47.440Z,20.70
2022-10-29T12:46:23.323Z,21.33
2022-10-29T12:48:59.534Z,20.67
2022-10-29T12:51:34.616Z,23.60
2022-10-29T12:54:17.814Z,22.03
2022-10-29T12:56:50.416Z,20.80
2022-10-29T12:59:39.448Z,24.13
2022-10-29T13:02:27.853Z,23.67
2022-10-29T13:05:14.367Z,26.00
2022-10-29T13:08:09.899Z,27.60
2022-10-29T13:10:55.593Z,28.27
2022-10-29T13:14:00.524Z,29.20
2022-10-29T13:16:30.856Z,28.03
2022-10-29T13:19:18.211Z,28.90
2022-10-29T13:22:01.786Z,26.97
2022-10-29T13:24:31.863Z,28.57
2022-10-29T13:27:34.077Z,25.20
2022-10-29T13:30:25.459Z,26.17
2022-10-29T13:32:54.881Z,25.53
2022-10-29T13:35:43.528Z,26.03
2022-10-29T13:38:17.259Z,25.80
2022-10-29T13:41:09.003Z,23.83
2022-10-29T13:43:37.438Z,19.77
2022-10-29T13:46:25.638Z,17.83
2022-10-29T13:48:55.474Z,15.07
2022-10-29T13:51:31.417Z,15.13
2022-10-29T13:54:03.183Z,15.20
2022-10-29T13:56:37.388Z,13.93
2022-10-29T13:59:15.011Z,15.07
2022-10-29T14:02:00.346Z,14.23
2022-10-29T14:04:33.055Z,13.67
2022-10-29T14:07:06.485Z,14.83
2022-10-29T14:09:49.135Z,15.07
2022-10-29T14:12:21.492Z,14.07
2022-10-29T14:15:01.154Z,13.90
2022-10-29T14:17:30.616Z,14.30
2022-10-29T14:19:59.144Z,13.47
2022-10-29T14:22:33.482Z,13.10
2022-10-29T14:25:03.575Z,14.33
2022-10-29T14:27:31.637Z,13.90
2022-10-29T14:30:14.050Z,12.53
2022-10-29T14:32:45.489Z,15.67
2022-10-29T14:35:17.721Z,15.70
2022-10-29T14:37:47.956Z,15.80
2022-10-29T14:40:21.674Z,15.27
2022-10-29T14:42:55.691Z,14.10
2022-10-29T14:45:28.519Z,14.40
2022-10-29T14:47:59.396Z,14.73
2022-10-29T14:50:29.344Z,14.97
2022-10-29T14:53:00.754Z,15.20
2022-10-29T14:55:32.482Z,14.50
2022-10-29T14:58:05.436Z,13.93
2022-10-29T15:00:37.339Z,15.90
2022-10-29T15:03:08.095Z,17.33
2022-10-29T15:05:46.537Z,18.00
2022-10-29T15:08:19.168Z,16.37
2022-10-29T15:10:50.092Z,17.63
2022-10-29T15:13:25.210Z,17.60
2022-10-29T15:15:58.861Z,16.33
2022-10-29T15:18:30.402Z,17.20
2022-10-29T15:20:59.574Z,16.70
2022-10-29T15:23:30.277Z,15.70
2022-10-29T15:26:01.842Z,16.73
2022-10-29T15:28:32.873Z,16.23
2022-10-29T15:31:03.271Z,17.70
2022-10-29T15:33:34.101Z,17.90
2022-10-29T15:36:03.663Z,16.77
2022-10-29T15:39:15.353Z,16.93
2022-10-29T15:41:48.471Z,17.73
2022-10-29T15:44:36.092Z,17.60
2022-10-29T15:47:20.174Z,17.83
2022-10-29T15:49:51.134Z,18.00
2022-10-29T15:52:20.171Z,17.80
2022-10-29T15:54:49.574Z,16.90
2022-10-29T15:57:17.832Z,16.27
2022-10-29T15:59:47.514Z,17.17
2022-10-29T16:02:18.648Z,18.13
2022-10-29T16:04:48.071Z,16.97
2022-10-29T16:07:19.061Z,17.83
2022-10-29T16:09:50.386Z,18.60
2022-10-29T16:12:18.561Z,17.50
2022-10-29T16:14:47.766Z,19.10
2022-10-29T16:17:17.871Z,17.23
2022-10-29T16:19:47.189Z,18.10
2022-10-29T16:22:16.762Z,17.67
2022-10-29T16:24:48.698Z,19.10
2022-10-29T16:27:18.523Z,17.77
2022-10-29T16:29:49.655Z,18.33
2022-10-29T16:32:19.020Z,17.47
2022-10-29T16:34:48.513Z,17.87
2022-10-29T16:37:18.186Z,18.20
2022-10-29T16:39:48.601Z,17.00
2022-10-29T16:42:28.629Z,18.70
2022-10-29T16:44:58.197Z,18.40
2022-10-29T16:47:26.441Z,17.10
2022-10-29T16:49:54.603Z,18.13
2022-10-29T16:52:25.223Z,18.03
2022-10-29T16:54:57.689Z,17.50
2022-10-29T16:57:26.001Z,18.80
2022-10-29T16:59:54.077Z,18.07
2022-10-29T17:02:22.155Z,18.00
2022-10-29T17:04:51.647Z,18.80
2022-10-29T17:07:20.378Z,18.63
2022-10-29T17:09:49.832Z,17.20
2022-10-29T17:12:19.916Z,20.30
2022-10-29T17:14:49.625Z,16.50
2022-10-29T17:17:20.474Z,18.40
2022-10-29T17:19:49.987Z,18.17
2022-10-29T17:22:18.070Z,16.73
2022-10-29T17:24:47.257Z,17.03
2022-10-29T17:27:20.274Z,16.43
2022-10-29T17:29:50.072Z,16.03
2022-10-29T17:32:18.809Z,15.80
2022-10-29T17:34:48.161Z,16.93
2022-10-29T17:37:18.307Z,16.70
2022-10-29T17:39:47.698Z,16.33
2022-10-29T17:42:26.838Z,17.07
2022-10-29T17:44:58.443Z,17.43
2022-10-29T17:47:27.293Z,17.93
2022-10-29T17:49:56.200Z,17.63
2022-10-29T17:52:28.825Z,18.27
2022-10-29T17:55:12.342Z,20.00
2022-10-29T17:57:47.514Z,21.40
2022-10-29T18:00:25.045Z,19.03
2022-10-29T18:05:33.731Z,20.37
2022-10-29T18:08:03.313Z,20.57
2022-10-29T18:10:33.663Z,21.23
2022-10-29T18:13:12.128Z,20.80
2022-10-29T18:15:42.578Z,21.40
2022-10-29T18:18:16.621Z,21.27
2022-10-29T18:20:51.940Z,22.27
2022-10-29T18:23:20.594Z,20.70
2022-10-29T18:26:02.987Z,21.37
2022-10-29T18:28:38.495Z,21.00
2022-10-29T18:31:14.468Z,22.37
2022-10-29T18:33:48.089Z,23.27
2022-10-29T18:36:19.462Z,26.20
2022-10-29T18:38:51.348Z,26.13
2022-10-29T18:41:22.458Z,24.20
2022-10-29T18:43:55.719Z,22.30
2022-10-29T18:46:33.975Z,22.63
2022-10-29T18:49:06.117Z,22.60
2022-10-29T18:51:36.023Z,22.20
2022-10-29T18:54:07.043Z,21.67
2022-10-29T18:56:40.538Z,20.00
2022-10-29T18:59:15.258Z,19.90
2022-10-29T19:01:46.998Z,19.43
2022-10-29T19:04:17.222Z,18.90
2022-10-29T19:06:49.770Z,18.23
2022-10-29T19:09:18.127Z,18.60
2022-10-29T19:11:55.390Z,19.10
2022-10-29T19:14:29.726Z,18.37
2022-10-29T19:17:02.298Z,19.13
2022-10-29T19:19:33.230Z,19.40
2022-10-29T19:22:02.888Z,19.80
2022-10-29T19:24:31.969Z,19.73
2022-10-29T19:27:01.595Z,20.93
2022-10-29T19:29:41.965Z,20.17
2022-10-29T19:32:11.573Z,21.27
2022-10-29T19:34:48.477Z,21.20
2022-10-29T19:37:17.515Z,19.80
2022-10-29T19:39:48.974Z,19.80
2022-10-29T19:42:24.791Z,21.00
2022-10-29T19:44:57.332Z,20.80
2022-10-29T19:47:25.944Z,20.80
2022-10-29T19:49:54.613Z,20.43
2022-10-29T19:52:31.189Z,20.97
2022-10-29T19:55:00.173Z,20.13
2022-10-29T19:57:28.811Z,20.13
2022-10-29T19:59:59.944Z,20.10
2022-10-29T20:02:31.807Z,19.70
2022-10-29T20:05:02.376Z,20.37
2022-10-29T20:07:32.344Z,19.10
2022-10-29T20:10:04.441Z,18.57
2022-10-29T20:12:32.976Z,18.43
2022-10-29T20:15:06.119Z,18.60
2022-10-29T20:17:35.043Z,18.83
2022-10-29T20:20:05.365Z,17.00
2022-10-29T20:22:34.172Z,17.30
2022-10-29T20:25:23.879Z,18.00
2022-10-29T20:27:56.081Z,17.20
2022-10-29T20:30:28.374Z,18.23
2022-10-29T20:32:58.297Z,18.43
2022-10-29T20:35:36.957Z,18.80
2022-10-29T20:38:09.899Z,17.97
2022-10-29T20:40:39.873Z,18.27
2022-10-29T20:43:08.413Z,17.77
2022-10-29T20:45:42.967Z,17.83
2022-10-29T20:48:13.041Z,16.97
2022-10-29T20:50:42.161Z,15.97
2022-10-29T20:53:11.784Z,15.90
2022-10-29T20:55:42.667Z,16.90
2022-10-29T20:58:11.688Z,17.63
2022-10-29T21:00:54.574Z,17.00
2022-10-29T21:03:23.665Z,17.03
2022-10-29T21:05:52.734Z,15.50
2022-10-29T21:08:21.241Z,17.27
2022-10-29T21:10:53.061Z,16.87
2022-10-29T21:13:21.721Z,16.93
2022-10-29T21:16:00.171Z,18.33
2022-10-29T21:18:29.524Z,17.77
2022-10-29T21:21:03.882Z,17.23
2022-10-29T21:23:33.191Z,19.10
2022-10-29T21:26:02.808Z,19.23
2022-10-29T21:28:35.461Z,18.73
2022-10-29T21:31:10.169Z,17.70
2022-10-29T21:33:38.420Z,17.70
2022-10-29T21:36:15.495Z,16.53
2022-10-29T21:38:44.749Z,17.77
2022-10-29T21:41:12.924Z,17.80
2022-10-29T21:43:41.288Z,17.50
2022-10-29T21:46:10.919Z,18.70
2022-10-29T21:48:38.967Z,19.97
2022-10-29T21:51:08.024Z,18.67
2022-10-29T21:53:36.321Z,19.27
2022-10-29T21:56:06.286Z,18.30
2022-10-29T21:58:34.362Z,19.27
2022-10-29T22:01:04.264Z,18.37
2022-10-29T22:03:34.383Z,17.73
2022-10-29T22:06:03.716Z,18.60
2022-10-29T22:08:31.828Z,19.20
2022-10-29T22:11:00.148Z,17.43
2022-10-29T22:13:28.436Z,18.73
2022-10-29T22:15:56.695Z,17.70
2022-10-29T22:18:25.258Z,18.20
2022-10-29T22:21:05.475Z,18.53
2022-10-29T22:23:33.528Z,18.00
2022-10-29T22:26:01.778Z,17.80
2022-10-29T22:28:29.787Z,16.90
2022-10-29T22:31:01.333Z,18.10
2022-10-29T22:33:29.781Z,18.93
2022-10-29T22:36:02.994Z,17.77
2022-10-29T22:38:32.363Z,18.33
2022-10-29T22:41:06.936Z,18.60
2022-10-29T22:43:35.135Z,18.60
2022-10-29T22:46:04.226Z,20.20
2022-10-29T22:48:32.508Z,18.67
2022-10-29T22:51:01.930Z,19.70
2022-10-29T22:53:30.033Z,18.20
2022-10-29T22:56:01.224Z,18.83
2022-10-29T22:58:29.866Z,18.80
2022-10-29T23:01:07.077Z,19.47
2022-10-29T23:03:36.190Z,17.60
2022-10-29T23:06:06.618Z,17.30
2022-10-29T23:08:34.980Z,17.60
2022-10-29T23:11:09.545Z,17.77
2022-10-29T23:13:41.301Z,16.13
2022-10-29T23:16:09.856Z,16.40
2022-10-29T23:18:39.277Z,16.47
2022-10-29T23:21:09.412Z,16.50
2022-10-29T23:23:41.342Z,17.00
2022-10-29T23:26:11.735Z,15.60
2022-10-29T23:28:42.504Z,16.73
2022-10-29T23:31:13.294Z,15.90
2022-10-29T23:33:45.779Z,14.93
2022-10-29T23:36:15.680Z,14.77
2022-10-29T23:38:45.876Z,15.00
2022-10-29T23:41:16.247Z,14.10
2022-10-29T23:43:47.026Z,13.70
2022-10-29T23:46:16.000Z,14.10
2022-10-29T23:48:44.028Z,14.17
2022-10-29T23:51:13.023Z,14.00
2022-10-29T23:53:42.509Z,14.03
2022-10-29T23:56:10.911Z,13.47
2022-10-29T23:58:47.241Z,14.97
